sensor_id;sensor_type;location;lat;lon;timestamp;P1;durP1;ratioP1;P2;durP2;ratioP2
3293;SDS011;1659;51.470;6.770;2024-02-14T00:00:15;11.33;;;5.03;;
3293;SDS011;1659;51.470;6.770;2024-02-14T00:02:43;8.60;;;5.03;;
3293;SDS011;1659;51.470;6.770;2024-02-14T00:05:10;8.27;;;5.10;;
3293;SDS011;1659;51.470;6.770;2024-02-14T00:07:37;8.60;;;4.63;;
3293;SDS011;1659;51.470;6.770;2024-02-14T00:10:04;8.33;;;4.77;;
3293;SDS011;1659;51.470;6.770;2024-02-14T00:12:31;11.83;;;5.30;;
3293;SDS011;1659;51.470;6.770;2024-02-14T00:14:58;7.63;;;5.47;;
3293;SDS011;1659;51.470;6.770;2024-02-14T00:17:26;5.17;;;4.60;;
3293;SDS011;1659;51.470;6.770;2024-02-14T00:19:52;9.87;;;5.60;;
3293;SDS011;1659;51.470;6.770;2024-02-14T00:22:19;6.60;;;5.50;;
3293;SDS011;1659;51.470;6.770;2024-02-14T00:24:46;10.37;;;6.27;;
3293;SDS011;1659;51.470;6.770;2024-02-14T00:27:12;7.40;;;5.00;;
3293;SDS011;1659;51.470;6.770;2024-02-14T00:29:39;5.93;;;4.70;;
3293;SDS011;1659;51.470;6.770;2024-02-14T00:32:06;7.90;;;5.87;;
3293;SDS011;1659;51.470;6.770;2024-02-14T00:34:34;8.10;;;5.83;;
3293;SDS011;1659;51.470;6.770;2024-02-14T00:37:00;6.20;;;4.90;;
3293;SDS011;1659;51.470;6.770;2024-02-14T00:39:27;6.70;;;4.40;;
3293;SDS011;1659;51.470;6.770;2024-02-14T00:41:53;10.43;;;5.07;;
3293;SDS011;1659;51.470;6.770;2024-02-14T00:44:21;8.63;;;5.10;;
3293;SDS011;1659;51.470;6.770;2024-02-14T00:46:47;7.20;;;4.50;;
3293;SDS011;1659;51.470;6.770;2024-02-14T00:49:14;10.67;;;4.63;;
3293;SDS011;1659;51.470;6.770;2024-02-14T00:51:42;6.73;;;4.10;;
3293;SDS011;1659;51.470;6.770;2024-02-14T00:54:08;7.53;;;5.80;;
3293;SDS011;1659;51.470;6.770;2024-02-14T00:56:35;6.53;;;4.83;;
3293;SDS011;1659;51.470;6.770;2024-02-14T00:59:01;6.63;;;4.60;;
3293;SDS011;1659;51.470;6.770;2024-02-14T01:01:28;5.97;;;5.10;;
3293;SDS011;1659;51.470;6.770;2024-02-14T01:03:55;9.73;;;5.20;;
3293;SDS011;1659;51.470;6.770;2024-02-14T01:06:21;5.47;;;4.87;;
3293;SDS011;1659;51.470;6.770;2024-02-14T01:08:50;6.17;;;4.57;;
3293;SDS011;1659;51.470;6.770;2024-02-14T01:11:16;4.83;;;4.43;;
3293;SDS011;1659;51.470;6.770;2024-02-14T01:13:43;7.33;;;4.40;;
3293;SDS011;1659;51.470;6.770;2024-02-14T01:16:10;8.10;;;5.03;;
3293;SDS011;1659;51.470;6.770;2024-02-14T01:18:36;8.13;;;4.80;;
3293;SDS011;1659;51.470;6.770;2024-02-14T01:21:03;5.90;;;4.50;;
3293;SDS011;1659;51.470;6.770;2024-02-14T01:23:29;8.63;;;4.33;;
3293;SDS011;1659;51.470;6.770;2024-02-14T01:25:57;5.80;;;4.73;;
3293;SDS011;1659;51.470;6.770;2024-02-14T01:28:23;7.40;;;4.40;;
3293;SDS011;1659;51.470;6.770;2024-02-14T01:30:50;7.63;;;4.20;;
3293;SDS011;1659;51.470;6.770;2024-02-14T01:33:17;6.77;;;4.70;;
3293;SDS011;1659;51.470;6.770;2024-02-14T01:35:43;4.50;;;3.77;;
3293;SDS011;1659;51.470;6.770;2024-02-14T01:38:10;8.80;;;4.70;;
3293;SDS011;1659;51.470;6.770;2024-02-14T01:40:37;5.30;;;4.33;;
3293;SDS011;1659;51.470;6.770;2024-02-14T01:43:05;6.87;;;4.20;;
3293;SDS011;1659;51.470;6.770;2024-02-14T01:45:32;4.37;;;3.23;;
3293;SDS011;1659;51.470;6.770;2024-02-14T01:47:58;7.77;;;3.70;;
3293;SDS011;1659;51.470;6.770;2024-02-14T01:50:25;5.83;;;4.20;;
3293;SDS011;1659;51.470;6.770;2024-02-14T01:52:54;5.97;;;3.93;;
3293;SDS011;1659;51.470;6.770;2024-02-14T01:55:24;7.03;;;3.53;;
3293;SDS011;1659;51.470;6.770;2024-02-14T01:57:51;7.17;;;4.30;;
3293;SDS011;1659;51.470;6.770;2024-02-14T02:00:20;2.70;;;2.53;;
3293;SDS011;1659;51.470;6.770;2024-02-14T02:02:46;6.73;;;3.70;;
3293;SDS011;1659;51.470;6.770;2024-02-14T02:05:13;11.80;;;3.70;;
3293;SDS011;1659;51.470;6.770;2024-02-14T02:07:40;10.33;;;3.80;;
3293;SDS011;1659;51.470;6.770;2024-02-14T02:10:08;5.97;;;3.90;;
3293;SDS011;1659;51.470;6.770;2024-02-14T02:12:36;5.07;;;3.43;;
3293;SDS011;1659;51.470;6.770;2024-02-14T02:15:04;4.60;;;3.70;;
3293;SDS011;1659;51.470;6.770;2024-02-14T02:17:32;9.30;;;4.10;;
3293;SDS011;1659;51.470;6.770;2024-02-14T02:19:59;6.60;;;3.90;;
3293;SDS011;1659;51.470;6.770;2024-02-14T02:22:26;11.70;;;6.40;;
3293;SDS011;1659;51.470;6.770;2024-02-14T02:24:55;7.97;;;5.43;;
3293;SDS011;1659;51.470;6.770;2024-02-14T02:27:22;19.23;;;4.63;;
3293;SDS011;1659;51.470;6.770;2024-02-14T02:29:48;10.67;;;4.87;;
3293;SDS011;1659;51.470;6.770;2024-02-14T02:32:15;10.97;;;5.10;;
3293;SDS011;1659;51.470;6.770;2024-02-14T02:34:43;8.17;;;5.23;;
3293;SDS011;1659;51.470;6.770;2024-02-14T02:37:10;13.17;;;6.40;;
3293;SDS011;1659;51.470;6.770;2024-02-14T02:39:37;9.13;;;5.60;;
3293;SDS011;1659;51.470;6.770;2024-02-14T02:42:05;8.27;;;5.23;;
3293;SDS011;1659;51.470;6.770;2024-02-14T02:44:33;9.37;;;5.87;;
3293;SDS011;1659;51.470;6.770;2024-02-14T02:47:02;8.43;;;4.90;;
3293;SDS011;1659;51.470;6.770;2024-02-14T02:49:29;10.50;;;4.90;;
3293;SDS011;1659;51.470;6.770;2024-02-14T02:51:56;8.60;;;3.90;;
3293;SDS011;1659;51.470;6.770;2024-02-14T02:54:22;10.70;;;4.70;;
3293;SDS011;1659;51.470;6.770;2024-02-14T02:56:49;5.87;;;4.03;;
3293;SDS011;1659;51.470;6.770;2024-02-14T02:59:17;4.80;;;3.50;;
3293;SDS011;1659;51.470;6.770;2024-02-14T03:01:43;3.30;;;3.00;;
3293;SDS011;1659;51.470;6.770;2024-02-14T03:04:11;5.03;;;3.30;;
3293;SDS011;1659;51.470;6.770;2024-02-14T03:06:38;4.27;;;3.00;;
3293;SDS011;1659;51.470;6.770;2024-02-14T03:09:04;4.03;;;2.87;;
3293;SDS011;1659;51.470;6.770;2024-02-14T03:11:30;5.13;;;3.40;;
3293;SDS011;1659;51.470;6.770;2024-02-14T03:13:57;3.30;;;3.00;;
3293;SDS011;1659;51.470;6.770;2024-02-14T03:16:25;5.37;;;3.30;;
3293;SDS011;1659;51.470;6.770;2024-02-14T03:18:51;5.33;;;3.60;;
3293;SDS011;1659;51.470;6.770;2024-02-14T03:21:19;6.10;;;3.10;;
3293;SDS011;1659;51.470;6.770;2024-02-14T03:23:46;7.47;;;3.87;;
3293;SDS011;1659;51.470;6.770;2024-02-14T03:26:13;4.23;;;3.73;;
3293;SDS011;1659;51.470;6.770;2024-02-14T03:28:40;7.30;;;4.13;;
3293;SDS011;1659;51.470;6.770;2024-02-14T03:31:06;7.03;;;4.23;;
3293;SDS011;1659;51.470;6.770;2024-02-14T03:33:40;5.47;;;4.27;;
3293;SDS011;1659;51.470;6.770;2024-02-14T03:36:07;4.07;;;3.67;;
3293;SDS011;1659;51.470;6.770;2024-02-14T03:38:34;10.67;;;4.77;;
3293;SDS011;1659;51.470;6.770;2024-02-14T03:41:00;6.80;;;4.60;;
3293;SDS011;1659;51.470;6.770;2024-02-14T03:43:27;6.13;;;4.60;;
3293;SDS011;1659;51.470;6.770;2024-02-14T03:45:53;4.47;;;4.03;;
3293;SDS011;1659;51.470;6.770;2024-02-14T03:48:21;7.33;;;4.30;;
3293;SDS011;1659;51.470;6.770;2024-02-14T03:50:49;8.20;;;4.40;;
3293;SDS011;1659;51.470;6.770;2024-02-14T03:53:15;5.80;;;4.13;;
3293;SDS011;1659;51.470;6.770;2024-02-14T03:55:42;6.20;;;4.50;;
3293;SDS011;1659;51.470;6.770;2024-02-14T03:58:08;6.10;;;3.83;;
3293;SDS011;1659;51.470;6.770;2024-02-14T04:00:35;4.23;;;3.83;;
3293;SDS011;1659;51.470;6.770;2024-02-14T04:03:01;6.90;;;5.07;;
3293;SDS011;1659;51.470;6.770;2024-02-14T04:05:28;6.20;;;4.70;;
3293;SDS011;1659;51.470;6.770;2024-02-14T04:07:56;6.30;;;5.10;;
3293;SDS011;1659;51.470;6.770;2024-02-14T04:10:23;6.37;;;4.37;;
3293;SDS011;1659;51.470;6.770;2024-02-14T04:12:49;10.80;;;4.67;;
3293;SDS011;1659;51.470;6.770;2024-02-14T04:15:16;6.13;;;4.37;;
3293;SDS011;1659;51.470;6.770;2024-02-14T04:17:42;9.93;;;4.60;;
3293;SDS011;1659;51.470;6.770;2024-02-14T04:20:09;7.10;;;5.00;;
3293;SDS011;1659;51.470;6.770;2024-02-14T04:22:36;6.90;;;4.53;;
3293;SDS011;1659;51.470;6.770;2024-02-14T04:25:04;7.03;;;5.33;;
3293;SDS011;1659;51.470;6.770;2024-02-14T04:27:33;7.60;;;4.60;;
3293;SDS011;1659;51.470;6.770;2024-02-14T04:30:00;6.97;;;4.80;;
3293;SDS011;1659;51.470;6.770;2024-02-14T04:32:27;6.13;;;5.27;;
3293;SDS011;1659;51.470;6.770;2024-02-14T04:34:54;5.70;;;4.53;;
3293;SDS011;1659;51.470;6.770;2024-02-14T04:37:21;7.47;;;4.40;;
3293;SDS011;1659;51.470;6.770;2024-02-14T04:39:48;8.80;;;3.90;;
3293;SDS011;1659;51.470;6.770;2024-02-14T04:42:15;5.37;;;4.70;;
3293;SDS011;1659;51.470;6.770;2024-02-14T04:44:42;8.93;;;4.50;;
3293;SDS011;1659;51.470;6.770;2024-02-14T04:47:09;6.00;;;4.43;;
3293;SDS011;1659;51.470;6.770;2024-02-14T04:49:35;6.30;;;4.37;;
3293;SDS011;1659;51.470;6.770;2024-02-14T04:52:02;6.23;;;4.20;;
3293;SDS011;1659;51.470;6.770;2024-02-14T04:54:30;8.37;;;5.10;;
3293;SDS011;1659;51.470;6.770;2024-02-14T04:56:57;5.33;;;4.63;;
3293;SDS011;1659;51.470;6.770;2024-02-14T04:59:24;4.30;;;3.90;;
3293;SDS011;1659;51.470;6.770;2024-02-14T05:01:51;4.30;;;3.90;;
3293;SDS011;1659;51.470;6.770;2024-02-14T05:04:19;5.03;;;4.03;;
3293;SDS011;1659;51.470;6.770;2024-02-14T05:06:45;10.23;;;4.87;;
3293;SDS011;1659;51.470;6.770;2024-02-14T05:09:12;8.50;;;4.57;;
3293;SDS011;1659;51.470;6.770;2024-02-14T05:11:40;6.80;;;4.93;;
3293;SDS011;1659;51.470;6.770;2024-02-14T05:14:06;6.97;;;4.67;;
3293;SDS011;1659;51.470;6.770;2024-02-14T05:16:34;7.33;;;4.70;;
3293;SDS011;1659;51.470;6.770;2024-02-14T05:19:01;5.33;;;4.00;;
3293;SDS011;1659;51.470;6.770;2024-02-14T05:21:27;6.23;;;4.90;;
3293;SDS011;1659;51.470;6.770;2024-02-14T05:23:55;7.70;;;4.97;;
3293;SDS011;1659;51.470;6.770;2024-02-14T05:26:21;5.83;;;5.23;;
3293;SDS011;1659;51.470;6.770;2024-02-14T05:28:48;7.33;;;4.90;;
3293;SDS011;1659;51.470;6.770;2024-02-14T05:31:14;5.20;;;4.80;;
3293;SDS011;1659;51.470;6.770;2024-02-14T05:33:42;5.10;;;4.17;;
3293;SDS011;1659;51.470;6.770;2024-02-14T05:36:09;8.13;;;4.83;;
3293;SDS011;1659;51.470;6.770;2024-02-14T05:38:36;4.97;;;4.33;;
3293;SDS011;1659;51.470;6.770;2024-02-14T05:41:02;4.90;;;4.40;;
3293;SDS011;1659;51.470;6.770;2024-02-14T05:43:29;5.93;;;4.37;;
3293;SDS011;1659;51.470;6.770;2024-02-14T05:45:56;5.93;;;4.33;;
3293;SDS011;1659;51.470;6.770;2024-02-14T05:48:22;6.20;;;4.63;;
3293;SDS011;1659;51.470;6.770;2024-02-14T05:50:50;9.40;;;4.50;;
3293;SDS011;1659;51.470;6.770;2024-02-14T05:53:17;5.13;;;4.63;;
3293;SDS011;1659;51.470;6.770;2024-02-14T05:55:44;8.57;;;5.37;;
3293;SDS011;1659;51.470;6.770;2024-02-14T05:58:10;6.43;;;4.77;;
3293;SDS011;1659;51.470;6.770;2024-02-14T06:00:38;10.77;;;4.77;;
3293;SDS011;1659;51.470;6.770;2024-02-14T06:03:04;6.97;;;5.43;;
3293;SDS011;1659;51.470;6.770;2024-02-14T06:05:32;5.50;;;4.97;;
3293;SDS011;1659;51.470;6.770;2024-02-14T06:08:00;6.90;;;5.23;;
3293;SDS011;1659;51.470;6.770;2024-02-14T06:10:28;7.10;;;5.50;;
3293;SDS011;1659;51.470;6.770;2024-02-14T06:12:54;6.10;;;4.67;;
3293;SDS011;1659;51.470;6.770;2024-02-14T06:15:21;7.37;;;6.20;;
3293;SDS011;1659;51.470;6.770;2024-02-14T06:17:48;6.47;;;5.17;;
3293;SDS011;1659;51.470;6.770;2024-02-14T06:20:15;4.83;;;4.30;;
3293;SDS011;1659;51.470;6.770;2024-02-14T06:22:41;6.07;;;5.53;;
3293;SDS011;1659;51.470;6.770;2024-02-14T06:25:09;9.70;;;5.97;;
3293;SDS011;1659;51.470;6.770;2024-02-14T06:27:36;9.57;;;6.80;;
3293;SDS011;1659;51.470;6.770;2024-02-14T06:30:03;8.47;;;6.23;;
3293;SDS011;1659;51.470;6.770;2024-02-14T06:32:30;10.87;;;7.10;;
3293;SDS011;1659;51.470;6.770;2024-02-14T06:34:57;10.93;;;6.23;;
3293;SDS011;1659;51.470;6.770;2024-02-14T06:37:23;6.60;;;6.00;;
3293;SDS011;1659;51.470;6.770;2024-02-14T06:39:50;9.50;;;6.47;;
3293;SDS011;1659;51.470;6.770;2024-02-14T06:42:18;8.10;;;6.10;;
3293;SDS011;1659;51.470;6.770;2024-02-14T06:44:44;8.30;;;6.17;;
3293;SDS011;1659;51.470;6.770;2024-02-14T06:47:11;7.23;;;6.13;;
3293;SDS011;1659;51.470;6.770;2024-02-14T06:49:38;10.10;;;6.47;;
3293;SDS011;1659;51.470;6.770;2024-02-14T06:52:05;8.33;;;6.57;;
3293;SDS011;1659;51.470;6.770;2024-02-14T06:54:31;9.00;;;5.90;;
3293;SDS011;1659;51.470;6.770;2024-02-14T06:56:58;7.93;;;6.13;;
3293;SDS011;1659;51.470;6.770;2024-02-14T06:59:26;7.97;;;5.70;;
3293;SDS011;1659;51.470;6.770;2024-02-14T07:01:53;6.37;;;5.23;;
3293;SDS011;1659;51.470;6.770;2024-02-14T07:04:20;9.20;;;6.57;;
3293;SDS011;1659;51.470;6.770;2024-02-14T07:06:51;8.40;;;6.13;;
3293;SDS011;1659;51.470;6.770;2024-02-14T07:09:18;7.63;;;6.10;;
3293;SDS011;1659;51.470;6.770;2024-02-14T07:11:45;10.83;;;7.37;;
3293;SDS011;1659;51.470;6.770;2024-02-14T07:14:11;11.57;;;7.10;;
3293;SDS011;1659;51.470;6.770;2024-02-14T07:16:39;11.03;;;7.17;;
3293;SDS011;1659;51.470;6.770;2024-02-14T07:19:06;9.33;;;6.63;;
3293;SDS011;1659;51.470;6.770;2024-02-14T07:21:33;9.40;;;6.03;;
3293;SDS011;1659;51.470;6.770;2024-02-14T07:23:59;10.50;;;7.03;;
3293;SDS011;1659;51.470;6.770;2024-02-14T07:26:26;10.50;;;8.00;;
3293;SDS011;1659;51.470;6.770;2024-02-14T07:28:53;10.17;;;6.90;;
3293;SDS011;1659;51.470;6.770;2024-02-14T07:31:19;17.83;;;7.77;;
3293;SDS011;1659;51.470;6.770;2024-02-14T07:33:47;11.10;;;7.00;;
3293;SDS011;1659;51.470;6.770;2024-02-14T07:36:18;11.03;;;6.87;;
3293;SDS011;1659;51.470;6.770;2024-02-14T07:38:44;11.73;;;7.27;;
3293;SDS011;1659;51.470;6.770;2024-02-14T07:41:11;11.50;;;7.33;;
3293;SDS011;1659;51.470;6.770;2024-02-14T07:43:37;21.03;;;8.30;;
3293;SDS011;1659;51.470;6.770;2024-02-14T07:46:04;10.97;;;7.23;;
3293;SDS011;1659;51.470;6.770;2024-02-14T07:48:32;12.83;;;7.10;;
3293;SDS011;1659;51.470;6.770;2024-02-14T07:51:00;13.10;;;7.77;;
3293;SDS011;1659;51.470;6.770;2024-02-14T07:53:26;11.07;;;8.13;;
3293;SDS011;1659;51.470;6.770;2024-02-14T07:55:53;11.80;;;7.73;;
3293;SDS011;1659;51.470;6.770;2024-02-14T07:58:19;11.07;;;7.20;;
3293;SDS011;1659;51.470;6.770;2024-02-14T08:00:46;12.87;;;8.33;;
3293;SDS011;1659;51.470;6.770;2024-02-14T08:03:13;12.90;;;7.70;;
3293;SDS011;1659;51.470;6.770;2024-02-14T08:05:39;10.80;;;8.00;;
3293;SDS011;1659;51.470;6.770;2024-02-14T08:08:09;9.23;;;7.00;;
3293;SDS011;1659;51.470;6.770;2024-02-14T08:10:35;12.20;;;7.23;;
3293;SDS011;1659;51.470;6.770;2024-02-14T08:13:02;14.40;;;7.43;;
3293;SDS011;1659;51.470;6.770;2024-02-14T08:15:29;15.83;;;8.23;;
3293;SDS011;1659;51.470;6.770;2024-02-14T08:17:57;11.97;;;7.20;;
3293;SDS011;1659;51.470;6.770;2024-02-14T08:20:24;10.93;;;6.83;;
3293;SDS011;1659;51.470;6.770;2024-02-14T08:22:50;10.53;;;7.10;;
3293;SDS011;1659;51.470;6.770;2024-02-14T08:25:18;13.60;;;7.23;;
3293;SDS011;1659;51.470;6.770;2024-02-14T08:27:45;16.53;;;8.33;;
3293;SDS011;1659;51.470;6.770;2024-02-14T08:30:12;9.47;;;7.30;;
3293;SDS011;1659;51.470;6.770;2024-02-14T08:32:40;10.00;;;6.30;;
3293;SDS011;1659;51.470;6.770;2024-02-14T08:35:06;8.83;;;6.57;;
3293;SDS011;1659;51.470;6.770;2024-02-14T08:37:34;12.60;;;7.63;;
3293;SDS011;1659;51.470;6.770;2024-02-14T08:40:03;10.07;;;6.00;;
3293;SDS011;1659;51.470;6.770;2024-02-14T08:42:32;7.13;;;5.60;;
3293;SDS011;1659;51.470;6.770;2024-02-14T08:44:59;6.63;;;4.60;;
3293;SDS011;1659;51.470;6.770;2024-02-14T08:47:25;6.90;;;5.20;;
3293;SDS011;1659;51.470;6.770;2024-02-14T08:49:52;12.57;;;5.80;;
3293;SDS011;1659;51.470;6.770;2024-02-14T08:52:18;5.53;;;4.67;;
3293;SDS011;1659;51.470;6.770;2024-02-14T08:54:46;6.90;;;4.77;;
3293;SDS011;1659;51.470;6.770;2024-02-14T08:57:13;5.80;;;4.50;;
3293;SDS011;1659;51.470;6.770;2024-02-14T08:59:41;8.60;;;4.87;;
3293;SDS011;1659;51.470;6.770;2024-02-14T09:02:09;5.17;;;4.50;;
3293;SDS011;1659;51.470;6.770;2024-02-14T09:04:35;7.63;;;4.47;;
3293;SDS011;1659;51.470;6.770;2024-02-14T09:07:02;7.30;;;4.80;;
3293;SDS011;1659;51.470;6.770;2024-02-14T09:09:29;5.50;;;4.53;;
3293;SDS011;1659;51.470;6.770;2024-02-14T09:11:56;10.47;;;5.60;;
3293;SDS011;1659;51.470;6.770;2024-02-14T09:14:22;5.27;;;4.07;;
3293;SDS011;1659;51.470;6.770;2024-02-14T09:16:50;8.20;;;5.03;;
3293;SDS011;1659;51.470;6.770;2024-02-14T09:19:17;6.23;;;4.83;;
3293;SDS011;1659;51.470;6.770;2024-02-14T09:21:43;6.47;;;4.57;;
3293;SDS011;1659;51.470;6.770;2024-02-14T09:24:10;7.10;;;5.03;;
3293;SDS011;1659;51.470;6.770;2024-02-14T09:26:38;7.57;;;4.90;;
3293;SDS011;1659;51.470;6.770;2024-02-14T09:29:05;6.70;;;4.20;;
3293;SDS011;1659;51.470;6.770;2024-02-14T09:31:31;8.30;;;5.70;;
3293;SDS011;1659;51.470;6.770;2024-02-14T09:33:59;8.87;;;5.97;;
3293;SDS011;1659;51.470;6.770;2024-02-14T09:36:26;13.70;;;5.20;;
3293;SDS011;1659;51.470;6.770;2024-02-14T09:38:54;6.40;;;4.63;;
3293;SDS011;1659;51.470;6.770;2024-02-14T09:41:22;10.10;;;5.53;;
3293;SDS011;1659;51.470;6.770;2024-02-14T09:43:51;9.70;;;6.17;;
3293;SDS011;1659;51.470;6.770;2024-02-14T09:46:18;12.80;;;6.20;;
3293;SDS011;1659;51.470;6.770;2024-02-14T09:48:45;7.23;;;5.10;;
3293;SDS011;1659;51.470;6.770;2024-02-14T09:51:14;13.57;;;6.27;;
3293;SDS011;1659;51.470;6.770;2024-02-14T09:53:40;11.43;;;5.97;;
3293;SDS011;1659;51.470;6.770;2024-02-14T09:56:08;9.10;;;6.10;;
3293;SDS011;1659;51.470;6.770;2024-02-14T09:58:36;12.67;;;6.50;;
3293;SDS011;1659;51.470;6.770;2024-02-14T10:01:03;8.37;;;6.13;;
3293;SDS011;1659;51.470;6.770;2024-02-14T10:03:31;8.90;;;6.00;;
3293;SDS011;1659;51.470;6.770;2024-02-14T10:05:58;6.10;;;4.30;;
3293;SDS011;1659;51.470;6.770;2024-02-14T10:08:26;10.77;;;4.80;;
3293;SDS011;1659;51.470;6.770;2024-02-14T10:10:56;12.60;;;4.47;;
3293;SDS011;1659;51.470;6.770;2024-02-14T10:13:22;5.93;;;4.27;;
3293;SDS011;1659;51.470;6.770;2024-02-14T10:15:49;8.37;;;5.07;;
3293;SDS011;1659;51.470;6.770;2024-02-14T10:18:16;9.27;;;4.77;;
3293;SDS011;1659;51.470;6.770;2024-02-14T10:20:51;6.90;;;4.20;;
3293;SDS011;1659;51.470;6.770;2024-02-14T10:23:19;13.30;;;4.20;;
3293;SDS011;1659;51.470;6.770;2024-02-14T10:25:48;8.07;;;4.50;;
3293;SDS011;1659;51.470;6.770;2024-02-14T10:28:15;9.63;;;4.13;;
3293;SDS011;1659;51.470;6.770;2024-02-14T10:30:44;5.00;;;3.93;;
3293;SDS011;1659;51.470;6.770;2024-02-14T10:33:11;12.27;;;4.37;;
3293;SDS011;1659;51.470;6.770;2024-02-14T10:35:38;7.07;;;4.17;;
3293;SDS011;1659;51.470;6.770;2024-02-14T10:38:06;7.70;;;4.20;;
3293;SDS011;1659;51.470;6.770;2024-02-14T10:40:34;4.30;;;3.57;;
3293;SDS011;1659;51.470;6.770;2024-02-14T10:43:05;6.47;;;4.17;;
3293;SDS011;1659;51.470;6.770;2024-02-14T10:45:31;5.27;;;3.50;;
3293;SDS011;1659;51.470;6.770;2024-02-14T10:47:58;6.20;;;4.17;;
3293;SDS011;1659;51.470;6.770;2024-02-14T10:50:27;5.80;;;3.90;;
3293;SDS011;1659;51.470;6.770;2024-02-14T10:52:58;8.07;;;4.57;;
3293;SDS011;1659;51.470;6.770;2024-02-14T10:55:30;6.87;;;4.03;;
3293;SDS011;1659;51.470;6.770;2024-02-14T10:57:59;4.80;;;3.60;;
3293;SDS011;1659;51.470;6.770;2024-02-14T11:00:28;9.97;;;4.20;;
3293;SDS011;1659;51.470;6.770;2024-02-14T11:02:57;7.57;;;4.07;;
3293;SDS011;1659;51.470;6.770;2024-02-14T11:05:25;4.50;;;4.10;;
3293;SDS011;1659;51.470;6.770;2024-02-14T11:07:52;5.40;;;3.53;;
3293;SDS011;1659;51.470;6.770;2024-02-14T11:10:19;8.90;;;3.83;;
3293;SDS011;1659;51.470;6.770;2024-02-14T11:12:48;7.23;;;3.80;;
3293;SDS011;1659;51.470;6.770;2024-02-14T11:15:16;11.27;;;6.07;;
3293;SDS011;1659;51.470;6.770;2024-02-14T11:17:45;4.77;;;3.47;;
3293;SDS011;1659;51.470;6.770;2024-02-14T11:20:17;5.00;;;3.77;;
3293;SDS011;1659;51.470;6.770;2024-02-14T11:22:54;5.90;;;3.40;;
3293;SDS011;1659;51.470;6.770;2024-02-14T11:25:22;6.73;;;3.47;;
3293;SDS011;1659;51.470;6.770;2024-02-14T11:27:50;4.50;;;3.37;;
3293;SDS011;1659;51.470;6.770;2024-02-14T11:30:26;6.10;;;3.50;;
3293;SDS011;1659;51.470;6.770;2024-02-14T11:32:56;7.53;;;3.60;;
3293;SDS011;1659;51.470;6.770;2024-02-14T11:35:43;6.13;;;3.97;;
3293;SDS011;1659;51.470;6.770;2024-02-14T11:38:12;9.70;;;4.30;;
3293;SDS011;1659;51.470;6.770;2024-02-14T11:40:39;5.10;;;3.00;;
3293;SDS011;1659;51.470;6.770;2024-02-14T11:43:10;3.70;;;3.00;;
3293;SDS011;1659;51.470;6.770;2024-02-14T11:45:38;4.30;;;3.70;;
3293;SDS011;1659;51.470;6.770;2024-02-14T11:48:08;5.53;;;3.60;;
3293;SDS011;1659;51.470;6.770;2024-02-14T11:50:36;8.80;;;3.30;;
3293;SDS011;1659;51.470;6.770;2024-02-14T11:53:06;6.43;;;3.63;;
3293;SDS011;1659;51.470;6.770;2024-02-14T11:55:34;3.07;;;2.77;;
3293;SDS011;1659;51.470;6.770;2024-02-14T11:58:02;5.83;;;3.83;;
3293;SDS011;1659;51.470;6.770;2024-02-14T12:00:29;3.20;;;3.00;;
3293;SDS011;1659;51.470;6.770;2024-02-14T12:02:55;2.93;;;2.73;;
3293;SDS011;1659;51.470;6.770;2024-02-14T12:05:23;2.63;;;2.53;;
3293;SDS011;1659;51.470;6.770;2024-02-14T12:07:50;3.03;;;2.77;;
3293;SDS011;1659;51.470;6.770;2024-02-14T12:10:17;2.60;;;1.93;;
3293;SDS011;1659;51.470;6.770;2024-02-14T12:12:44;3.80;;;1.80;;
3293;SDS011;1659;51.470;6.770;2024-02-14T12:15:11;2.87;;;2.67;;
3293;SDS011;1659;51.470;6.770;2024-02-14T12:17:40;1.93;;;1.80;;
3293;SDS011;1659;51.470;6.770;2024-02-14T12:20:08;4.07;;;3.53;;
3293;SDS011;1659;51.470;6.770;2024-02-14T12:22:37;3.00;;;2.80;;
3293;SDS011;1659;51.470;6.770;2024-02-14T12:25:05;2.40;;;2.30;;
3293;SDS011;1659;51.470;6.770;2024-02-14T12:27:32;2.47;;;2.30;;
3293;SDS011;1659;51.470;6.770;2024-02-14T12:29:59;3.43;;;2.53;;
3293;SDS011;1659;51.470;6.770;2024-02-14T12:32:29;2.70;;;2.37;;
3293;SDS011;1659;51.470;6.770;2024-02-14T12:34:56;3.00;;;2.20;;
3293;SDS011;1659;51.470;6.770;2024-02-14T12:37:22;5.70;;;3.00;;
3293;SDS011;1659;51.470;6.770;2024-02-14T12:39:50;2.70;;;2.30;;
3293;SDS011;1659;51.470;6.770;2024-02-14T12:42:18;2.37;;;2.27;;
3293;SDS011;1659;51.470;6.770;2024-02-14T12:44:50;2.60;;;2.40;;
3293;SDS011;1659;51.470;6.770;2024-02-14T12:47:16;3.13;;;2.27;;
3293;SDS011;1659;51.470;6.770;2024-02-14T12:49:43;2.40;;;2.07;;
3293;SDS011;1659;51.470;6.770;2024-02-14T12:52:12;2.10;;;1.83;;
3293;SDS011;1659;51.470;6.770;2024-02-14T12:54:39;4.20;;;2.70;;
3293;SDS011;1659;51.470;6.770;2024-02-14T12:57:07;3.97;;;2.53;;
3293;SDS011;1659;51.470;6.770;2024-02-14T12:59:33;5.37;;;2.70;;
3293;SDS011;1659;51.470;6.770;2024-02-14T13:02:00;3.30;;;2.97;;
3293;SDS011;1659;51.470;6.770;2024-02-14T13:04:27;5.10;;;3.57;;
3293;SDS011;1659;51.470;6.770;2024-02-14T13:06:55;3.20;;;2.90;;
3293;SDS011;1659;51.470;6.770;2024-02-14T13:09:22;3.20;;;2.60;;
3293;SDS011;1659;51.470;6.770;2024-02-14T13:11:49;2.83;;;2.20;;
3293;SDS011;1659;51.470;6.770;2024-02-14T13:14:17;2.27;;;2.17;;
3293;SDS011;1659;51.470;6.770;2024-02-14T13:16:44;2.90;;;2.57;;
3293;SDS011;1659;51.470;6.770;2024-02-14T13:19:10;3.10;;;2.60;;
3293;SDS011;1659;51.470;6.770;2024-02-14T13:21:37;2.80;;;2.60;;
3293;SDS011;1659;51.470;6.770;2024-02-14T13:24:05;2.43;;;2.20;;
3293;SDS011;1659;51.470;6.770;2024-02-14T13:26:33;2.60;;;2.40;;
3293;SDS011;1659;51.470;6.770;2024-02-14T13:29:00;3.23;;;2.23;;
3293;SDS011;1659;51.470;6.770;2024-02-14T13:31:28;6.83;;;2.73;;
3293;SDS011;1659;51.470;6.770;2024-02-14T13:33:54;3.67;;;2.47;;
3293;SDS011;1659;51.470;6.770;2024-02-14T13:36:21;2.60;;;2.20;;
3293;SDS011;1659;51.470;6.770;2024-02-14T13:38:48;5.17;;;2.73;;
3293;SDS011;1659;51.470;6.770;2024-02-14T13:41:15;3.07;;;2.83;;
3293;SDS011;1659;51.470;6.770;2024-02-14T13:43:42;5.77;;;2.93;;
3293;SDS011;1659;51.470;6.770;2024-02-14T13:46:09;3.00;;;2.73;;
3293;SDS011;1659;51.470;6.770;2024-02-14T13:48:37;3.73;;;2.73;;
3293;SDS011;1659;51.470;6.770;2024-02-14T13:51:04;2.80;;;2.23;;
3293;SDS011;1659;51.470;6.770;2024-02-14T13:53:30;4.43;;;2.77;;
3293;SDS011;1659;51.470;6.770;2024-02-14T13:55:57;2.10;;;2.00;;
3293;SDS011;1659;51.470;6.770;2024-02-14T13:58:24;2.23;;;2.03;;
3293;SDS011;1659;51.470;6.770;2024-02-14T14:00:51;2.47;;;2.27;;
3293;SDS011;1659;51.470;6.770;2024-02-14T14:03:17;2.10;;;2.00;;
3293;SDS011;1659;51.470;6.770;2024-02-14T14:05:45;2.07;;;1.97;;
3293;SDS011;1659;51.470;6.770;2024-02-14T14:08:15;2.10;;;2.00;;
3293;SDS011;1659;51.470;6.770;2024-02-14T14:10:41;1.80;;;1.70;;
3293;SDS011;1659;51.470;6.770;2024-02-14T14:13:10;2.87;;;2.40;;
3293;SDS011;1659;51.470;6.770;2024-02-14T14:15:37;3.10;;;2.83;;
3293;SDS011;1659;51.470;6.770;2024-02-14T14:18:04;2.80;;;2.47;;
3293;SDS011;1659;51.470;6.770;2024-02-14T14:20:31;7.60;;;5.10;;
3293;SDS011;1659;51.470;6.770;2024-02-14T14:22:58;4.87;;;4.50;;
3293;SDS011;1659;51.470;6.770;2024-02-14T14:25:25;4.53;;;2.70;;
3293;SDS011;1659;51.470;6.770;2024-02-14T14:27:53;2.60;;;2.40;;
3293;SDS011;1659;51.470;6.770;2024-02-14T14:30:20;3.07;;;2.80;;
3293;SDS011;1659;51.470;6.770;2024-02-14T14:32:46;3.00;;;2.30;;
3293;SDS011;1659;51.470;6.770;2024-02-14T14:35:13;3.07;;;2.87;;
3293;SDS011;1659;51.470;6.770;2024-02-14T14:37:40;3.87;;;3.50;;
3293;SDS011;1659;51.470;6.770;2024-02-14T14:40:07;3.83;;;2.87;;
3293;SDS011;1659;51.470;6.770;2024-02-14T14:42:35;3.20;;;2.90;;
3293;SDS011;1659;51.470;6.770;2024-02-14T14:45:02;5.63;;;4.57;;
3293;SDS011;1659;51.470;6.770;2024-02-14T14:47:29;3.80;;;3.07;;
3293;SDS011;1659;51.470;6.770;2024-02-14T14:49:55;2.23;;;2.13;;
3293;SDS011;1659;51.470;6.770;2024-02-14T14:52:22;2.50;;;2.30;;
3293;SDS011;1659;51.470;6.770;2024-02-14T14:54:48;23.70;;;9.40;;
3293;SDS011;1659;51.470;6.770;2024-02-14T14:57:16;8.20;;;6.60;;
3293;SDS011;1659;51.470;6.770;2024-02-14T14:59:43;6.50;;;4.70;;
3293;SDS011;1659;51.470;6.770;2024-02-14T15:02:09;21.67;;;9.40;;
3293;SDS011;1659;51.470;6.770;2024-02-14T15:04:36;5.70;;;4.30;;
3293;SDS011;1659;51.470;6.770;2024-02-14T15:07:05;3.10;;;2.50;;
3293;SDS011;1659;51.470;6.770;2024-02-14T15:09:31;6.30;;;3.10;;
3293;SDS011;1659;51.470;6.770;2024-02-14T15:11:58;4.30;;;3.90;;